Time;durP1;ratioP1;P1;durP2;ratioP2;P2;SDS_P1;SDS_P2;PMS_P1;PMS_P2;Temp;Humidity;BMP_temperature;BMP_pressure;BME280_temperature;BME280_humidity;BME280_pressure;Samples;Min_cycle;Max_cycle;Signal;HPM_P1;HPM_P2
2022/03/17 00:01:19;;;;;;;28.00;20.48;;;;;;;10.34;100.00;99814.34;5073317;28;20196;-75
2022/03/17 00:03:46;;;;;;;26.98;21.05;;;;;;;10.48;100.00;99809.06;5072434;28;20193;-74
2022/03/17 00:06:13;;;;;;;33.08;21.75;;;;;;;10.21;100.00;99814.94;5073127;28;20653;-74
2022/03/17 00:08:40;;;;;;;27.73;21.10;;;;;;;10.28;100.00;99820.88;5072244;28;20561;-75
2022/03/17 00:11:06;;;;;;;28.02;21.45;;;;;;;10.39;100.00;99821.22;5073174;28;20192;-74
2022/03/17 00:13:34;;;;;;;30.48;21.23;;;;;;;10.32;100.00;99822.50;5072951;28;20196;-74
2022/03/17 00:16:01;;;;;;;30.65;23.35;;;;;;;10.20;100.00;99820.44;5072506;28;20191;-74
2022/03/17 00:18:27;;;;;;;26.52;20.23;;;;;;;10.20;100.00;99818.59;5072278;28;20518;-74
2022/03/17 00:20:54;;;;;;;28.35;22.17;;;;;;;10.11;100.00;99823.63;5072871;28;20286;-74
2022/03/17 00:23:22;;;;;;;34.10;22.08;;;;;;;10.08;100.00;99824.63;5073213;28;20555;-75
2022/03/17 00:25:49;;;;;;;37.50;23.10;;;;;;;10.17;100.00;99825.97;5072730;28;20199;-74
2022/03/17 00:28:15;;;;;;;27.05;21.83;;;;;;;10.25;100.00;99826.44;5071068;28;20223;-75
2022/03/17 00:30:43;;;;;;;28.48;22.42;;;;;;;10.20;100.00;99833.91;5072427;28;20185;-74
2022/03/17 00:33:10;;;;;;;28.85;21.85;;;;;;;10.39;100.00;99834.66;5072606;28;20714;-73
2022/03/17 00:35:38;;;;;;;29.48;22.02;;;;;;;10.28;100.00;99830.78;5072133;28;20279;-75
2022/03/17 00:38:08;;;;;;;29.83;22.75;;;;;;;10.22;100.00;99830.16;5072174;28;20270;-75
2022/03/17 00:40:35;;;;;;;29.23;21.83;;;;;;;10.26;100.00;99835.38;5072494;28;20673;-75
2022/03/17 00:43:02;;;;;;;30.30;22.00;;;;;;;10.15;100.00;99833.25;5071021;28;20228;-75
2022/03/17 00:45:29;;;;;;;32.72;22.77;;;;;;;10.09;100.00;99833.59;5086080;28;20203;-75
2022/03/17 00:47:58;;;;;;;30.55;23.10;;;;;;;9.94;100.00;99837.94;5092614;28;20211;-75
2022/03/17 00:50:25;;;;;;;30.27;22.50;;;;;;;9.92;100.00;99829.94;5078686;28;20686;-76
2022/03/17 00:52:52;;;;;;;33.17;24.27;;;;;;;9.89;100.00;99834.63;5072410;28;20208;-75
2022/03/17 00:55:19;;;;;;;30.55;24.20;;;;;;;9.91;100.00;99836.28;5071520;28;20193;-75
2022/03/17 00:57:47;;;;;;;33.33;24.15;;;;;;;9.92;100.00;99837.13;5072144;28;20554;-75
2022/03/17 01:00:15;;;;;;;34.60;24.08;;;;;;;9.87;100.00;99831.13;5072038;28;20641;-76
2022/03/17 01:02:42;;;;;;;33.75;24.65;;;;;;;9.85;100.00;99836.59;5071982;28;20199;-75
2022/03/17 01:05:11;;;;;;;30.77;22.17;;;;;;;10.06;100.00;99833.72;5071593;28;20204;-75
2022/03/17 01:07:38;;;;;;;33.00;22.90;;;;;;;10.13;100.00;99830.66;5072008;28;20217;-75
2022/03/17 01:10:05;;;;;;;31.65;23.55;;;;;;;10.15;100.00;99833.25;5072197;28;20196;-75
2022/03/17 01:12:32;;;;;;;37.63;24.00;;;;;;;10.12;100.00;99838.78;5071677;28;20208;-75
2022/03/17 01:15:00;;;;;;;35.28;25.80;;;;;;;10.00;100.00;99840.31;5071126;28;20196;-75
2022/03/17 01:17:26;;;;;;;33.28;24.95;;;;;;;9.87;100.00;99832.00;5071863;28;20185;-75
2022/03/17 01:19:53;;;;;;;32.25;24.08;;;;;;;9.89;100.00;99835.47;5071611;28;20203;-74
2022/03/17 01:22:21;;;;;;;29.40;23.23;;;;;;;9.93;100.00;99838.91;5072120;28;20189;-74
2022/03/17 01:24:49;;;;;;;32.35;24.83;;;;;;;9.82;100.00;99844.81;5071754;28;20284;-74
2022/03/17 01:27:19;;;;;;;32.53;23.45;;;;;;;9.74;100.00;99844.31;5071215;28;20212;-74
2022/03/17 01:29:46;;;;;;;32.78;23.65;;;;;;;9.96;100.00;99836.91;5072037;28;20621;-75
2022/03/17 01:32:13;;;;;;;33.88;24.83;;;;;;;9.92;100.00;99847.91;5071933;28;20184;-74
2022/03/17 01:34:40;;;;;;;33.10;23.42;;;;;;;10.12;100.00;99839.66;5071979;28;20197;-75
2022/03/17 01:37:06;;;;;;;33.88;23.40;;;;;;;10.31;100.00;99836.03;5071919;28;20188;-74
2022/03/17 01:39:34;;;;;;;31.65;23.38;;;;;;;10.43;100.00;99843.47;5072334;28;20177;-75
2022/03/17 01:42:04;;;;;;;27.88;22.13;;;;;;;10.43;100.00;99838.94;5075652;28;20654;-75
2022/03/17 01:44:31;;;;;;;31.58;22.73;;;;;;;10.18;100.00;99842.03;5075341;28;20189;-74
2022/03/17 01:49:42;;;;;;;29.58;21.15;;;;;;;10.04;100.00;99833.81;5074994;28;20243;-74
2022/03/17 01:52:09;;;;;;;34.53;24.27;;;;;;;10.04;100.00;99833.81;5075765;28;20181;-74
2022/03/17 01:54:38;;;;;;;29.83;22.20;;;;;;;10.24;100.00;99835.44;5075501;28;20619;-74
2022/03/17 01:57:06;;;;;;;39.72;23.75;;;;;;;10.13;100.00;99837.84;5075673;28;20177;-74
2022/03/17 01:59:34;;;;;;;33.13;24.58;;;;;;;10.00;100.00;99841.19;5075431;28;20199;-75
2022/03/17 02:02:02;;;;;;;32.42;24.40;;;;;;;10.20;100.00;99839.28;5075198;28;20199;-75
2022/03/17 02:04:29;;;;;;;34.60;24.67;;;;;;;10.29;100.00;99838.81;5075084;28;20185;-75
2022/03/17 02:06:56;;;;;;;31.15;23.15;;;;;;;10.35;100.00;99851.06;5075434;28;20204;-75
2022/03/17 02:09:26;;;;;;;33.22;23.23;;;;;;;10.36;100.00;99848.31;5074466;28;20246;-74
2022/03/17 02:14:48;;;;;;;31.75;23.42;;;;;;;10.33;100.00;99851.13;5057748;28;20566;-74
2022/03/17 02:17:15;;;;;;;33.30;23.55;;;;;;;10.36;100.00;99856.38;5074858;28;20551;-74
2022/03/17 02:19:42;;;;;;;32.70;23.67;;;;;;;10.46;100.00;99858.56;5075240;28;20234;-75
2022/03/17 02:22:12;;;;;;;33.50;24.98;;;;;;;10.35;100.00;99859.13;5074713;28;20553;-75
2022/03/17 02:27:25;;;;;;;29.35;23.00;;;;;;;10.38;100.00;99869.75;5074703;28;20188;-74
2022/03/17 02:29:52;;;;;;;28.45;21.50;;;;;;;10.53;100.00;99863.53;5074566;28;20228;-75
2022/03/17 02:32:20;;;;;;;30.08;21.83;;;;;;;10.64;100.00;99861.13;5074742;28;20230;-74
2022/03/17 02:34:46;;;;;;;31.77;22.55;;;;;;;10.59;100.00;99862.34;5074254;28;20199;-76
2022/03/17 02:37:15;;;;;;;27.70;23.15;;;;;;;10.69;100.00;99863.56;5074621;28;20184;-75
2022/03/17 02:39:43;;;;;;;29.27;23.02;;;;;;;10.67;100.00;99873.56;5074528;28;20197;-75
2022/03/17 02:42:11;;;;;;;30.27;23.05;;;;;;;10.68;100.00;99864.53;5074728;28;20214;-75
2022/03/17 02:44:37;;;;;;;27.63;21.55;;;;;;;10.72;100.00;99866.13;5074355;28;20193;-74
2022/03/17 02:47:05;;;;;;;31.98;24.58;;;;;;;10.68;100.00;99874.44;5074771;28;20545;-75
2022/03/17 02:49:31;;;;;;;31.75;23.30;;;;;;;10.57;100.00;99875.03;5074003;28;20682;-75
2022/03/17 02:51:58;;;;;;;29.92;22.05;;;;;;;10.66;100.00;99879.06;5073677;28;20185;-74
2022/03/17 02:54:25;;;;;;;33.03;23.98;;;;;;;10.51;100.00;99878.03;5074320;28;20639;-75
2022/03/17 02:56:52;;;;;;;28.98;22.00;;;;;;;10.41;100.00;99883.91;5074251;28;20214;-75
2022/03/17 02:59:19;;;;;;;28.10;21.65;;;;;;;10.53;100.00;99881.53;5074100;28;20192;-75
2022/03/17 03:01:46;;;;;;;30.45;22.77;;;;;;;10.56;100.00;99878.66;5074213;28;20651;-75
2022/03/17 03:04:13;;;;;;;29.67;22.92;;;;;;;10.63;100.00;99878.25;5074165;28;20193;-74
2022/03/17 03:06:40;;;;;;;31.67;23.58;;;;;;;10.68;100.00;99879.84;5074412;28;20188;-75
2022/03/17 03:09:06;;;;;;;29.65;22.52;;;;;;;10.66;100.00;99874.53;5073939;28;20205;-75
2022/03/17 03:11:33;;;;;;;29.38;22.33;;;;;;;10.54;100.00;99872.50;5074033;28;20216;-74
2022/03/17 03:14:01;;;;;;;30.13;23.30;;;;;;;10.63;100.00;99875.56;5073949;28;20627;-75
2022/03/17 03:16:28;;;;;;;28.00;23.40;;;;;;;10.64;100.00;99892.59;5074098;28;20543;-75
2022/03/17 03:18:55;;;;;;;31.15;22.25;;;;;;;10.67;100.00;99886.16;5073513;28;20197;-75
2022/03/17 03:21:21;;;;;;;31.27;23.55;;;;;;;10.54;100.00;99880.59;5073808;28;20185;-75
2022/03/17 03:23:48;;;;;;;29.25;22.98;;;;;;;10.66;100.00;99888.00;5073448;28;20626;-75
2022/03/17 03:26:15;;;;;;;30.23;23.42;;;;;;;10.50;100.00;99879.88;5074126;28;20555;-75
2022/03/17 03:28:42;;;;;;;30.48;22.75;;;;;;;10.62;100.00;99881.03;5073283;28;20217;-75
2022/03/17 03:31:10;;;;;;;31.92;24.38;;;;;;;10.71;100.00;99883.22;5073707;28;20199;-74
2022/03/17 03:33:36;;;;;;;31.95;24.00;;;;;;;10.64;100.00;99884.50;5073619;28;20539;-74
2022/03/17 03:38:47;;;;;;;35.97;25.13;;;;;;;10.52;100.00;99894.13;5073168;28;20251;-74
2022/03/17 03:41:14;;;;;;;30.83;23.52;;;;;;;10.47;100.00;99890.81;5073490;28;20201;-74
2022/03/17 03:43:40;;;;;;;31.33;22.73;;;;;;;10.44;100.00;99897.19;5072583;28;20189;-74
2022/03/17 03:46:07;;;;;;;33.25;24.48;;;;;;;10.14;100.00;99905.03;5073107;28;20193;-74
2022/03/17 03:48:35;;;;;;;32.67;25.20;;;;;;;9.96;100.00;99900.59;5072752;28;20232;-74
2022/03/17 03:51:01;;;;;;;31.35;23.80;;;;;;;10.16;100.00;99905.81;5053560;28;20192;-74
2022/03/17 03:54:12;;;;;;;30.15;23.52;;;;;;;10.18;100.00;99916.53;5053604;28;20192;-75
2022/03/17 03:56:14;;;;;;;32.38;24.73;;;;;;;10.23;100.00;99915.31;5053114;28;20201;-75
2022/03/17 03:58:41;;;;;;;33.45;24.23;;;;;;;10.13;100.00;99922.13;5054335;28;20189;-75
2022/03/17 04:01:07;;;;;;;35.28;25.42;;;;;;;9.99;100.00;99922.84;5072631;28;20634;-75
2022/03/17 04:03:35;;;;;;;34.88;24.83;;;;;;;9.86;100.00;99923.50;5072655;28;20204;-75
2022/03/17 04:06:02;;;;;;;32.85;23.63;;;;;;;9.74;100.00;99923.19;5072157;28;20282;-74
2022/03/17 04:08:29;;;;;;;37.42;25.73;;;;;;;9.78;100.00;99927.47;5072482;28;20283;-74
2022/03/17 04:10:55;;;;;;;32.92;24.00;;;;;;;9.76;100.00;99929.34;5072454;28;20198;-75
2022/03/17 04:13:22;;;;;;;30.77;22.88;;;;;;;9.87;100.00;99936.91;5072590;28;20192;-75
2022/03/17 04:15:48;;;;;;;37.40;25.25;;;;;;;9.81;100.00;99937.19;5072609;28;20210;-74
2022/03/17 04:18:15;;;;;;;34.75;23.60;;;;;;;9.82;100.00;99938.94;5072517;28;20184;-75
2022/03/17 04:20:44;;;;;;;31.00;24.70;;;;;;;9.87;100.00;99936.91;5072400;28;20189;-74
2022/03/17 04:23:10;;;;;;;33.35;25.58;;;;;;;9.83;100.00;99937.97;5073002;28;20621;-74
2022/03/17 04:25:37;;;;;;;36.40;25.50;;;;;;;9.77;100.00;99949.94;5072356;28;20203;-75
2022/03/17 04:28:05;;;;;;;35.35;25.33;;;;;;;10.02;100.00;99952.28;5072239;28;20226;-75
2022/03/17 04:30:33;;;;;;;35.95;27.13;;;;;;;9.81;100.00;99951.53;5072575;28;20228;-75
2022/03/17 04:32:59;;;;;;;36.28;27.52;;;;;;;9.93;100.00;99965.31;5072910;28;20564;-74
2022/03/17 04:35:26;;;;;;;35.60;26.65;;;;;;;10.01;100.00;99960.41;5071793;28;20202;-74
2022/03/17 04:37:54;;;;;;;39.20;27.13;;;;;;;10.13;100.00;99959.81;5071993;28;20181;-74
2022/03/17 04:40:21;;;;;;;38.75;27.60;;;;;;;9.84;100.00;99971.16;5070836;28;20200;-74
2022/03/17 04:42:47;;;;;;;37.47;27.83;;;;;;;9.84;100.00;99971.16;5072250;28;20191;-74
2022/03/17 04:45:14;;;;;;;35.88;25.90;;;;;;;9.95;100.00;99977.75;5070926;28;20207;-74
2022/03/17 04:47:40;;;;;;;37.70;26.17;;;;;;;9.96;100.00;99978.59;5072332;28;20673;-75
2022/03/17 04:50:08;;;;;;;39.05;27.42;;;;;;;10.15;100.00;99981.22;5071568;28;20612;-75
2022/03/17 04:55:20;;;;;;;35.35;26.50;;;;;;;10.16;100.00;99983.84;5071485;28;20269;-74
2022/03/17 04:57:47;;;;;;;35.45;25.95;;;;;;;10.11;100.00;99999.38;5072275;28;20531;-75
2022/03/17 05:00:14;;;;;;;37.33;25.85;;;;;;;10.17;100.00;99999.03;5071648;28;20539;-75
2022/03/17 05:02:41;;;;;;;33.25;26.08;;;;;;;10.19;100.00;99999.84;5071990;28;20200;-75
2022/03/17 05:05:08;;;;;;;35.70;26.50;;;;;;;10.14;100.00;99999.22;5072362;28;20533;-75
2022/03/17 05:07:35;;;;;;;32.53;25.92;;;;;;;10.18;100.00;100000.81;5071376;28;20204;-75
2022/03/17 05:10:02;;;;;;;34.58;26.58;;;;;;;10.20;100.00;100006.13;5071632;28;20220;-74
2022/03/17 05:12:30;;;;;;;37.97;27.92;;;;;;;10.27;100.00;100004.00;5071714;28;20185;-74
2022/03/17 05:14:56;;;;;;;39.70;26.63;;;;;;;10.30;100.00;100002.03;5070958;28;20196;-75
2022/03/17 05:17:23;;;;;;;38.53;29.02;;;;;;;10.07;100.00;100005.84;5071746;28;20211;-74
2022/03/17 05:19:49;;;;;;;37.30;26.83;;;;;;;9.98;100.00;100011.69;5072155;28;20195;-74
2022/03/17 05:22:16;;;;;;;35.05;26.48;;;;;;;9.71;100.00;100021.97;5071594;28;20195;-74
2022/03/17 05:24:42;;;;;;;35.25;25.00;;;;;;;9.81;100.00;100016.06;5071143;28;20195;-74
2022/03/17 05:27:09;;;;;;;32.55;24.50;;;;;;;9.61;100.00;100016.16;5071760;28;20188;-74
2022/03/17 05:29:37;;;;;;;39.38;26.00;;;;;;;9.56;100.00;100015.50;5071571;28;20196;-75
2022/03/17 05:32:04;;;;;;;36.85;26.20;;;;;;;9.60;100.00;100035.91;5071652;28;20189;-74
2022/03/17 05:34:32;;;;;;;34.30;25.40;;;;;;;9.63;100.00;100027.69;5071583;28;20192;-75
2022/03/17 05:36:58;;;;;;;37.47;26.48;;;;;;;9.59;100.00;100020.75;5071350;28;20218;-74
2022/03/17 05:39:25;;;;;;;34.40;25.55;;;;;;;9.72;100.00;100021.00;5071181;28;20199;-74
2022/03/17 05:41:52;;;;;;;39.67;26.83;;;;;;;9.73;100.00;100023.63;5071493;28;20623;-75
2022/03/17 05:44:18;;;;;;;34.88;25.92;;;;;;;9.79;100.00;100030.50;5071194;28;20200;-74
2022/03/17 05:46:46;;;;;;;40.13;27.90;;;;;;;9.81;100.00;100032.22;5063081;28;20216;-75
2022/03/17 05:49:13;;;;;;;35.25;26.00;;;;;;;9.65;100.00;100035.69;5070812;28;20314;-74
2022/03/17 05:51:39;;;;;;;37.97;25.63;;;;;;;9.87;100.00;100047.16;5071504;28;20207;-74
2022/03/17 05:54:06;;;;;;;33.22;25.33;;;;;;;9.96;100.00;100045.84;5071428;28;20195;-75
2022/03/17 05:56:33;;;;;;;33.60;24.52;;;;;;;10.12;100.00;100051.38;5071770;28;20279;-74
2022/03/17 05:58:59;;;;;;;36.45;27.25;;;;;;;10.18;100.00;100062.69;5070440;28;20531;-74
2022/03/17 06:01:26;;;;;;;39.83;27.42;;;;;;;10.03;100.00;100063.44;5069656;28;20555;-75
2022/03/17 06:03:54;;;;;;;36.22;26.13;;;;;;;10.15;100.00;100076.31;5071461;28;20543;-74
2022/03/17 06:06:20;;;;;;;40.70;27.75;;;;;;;9.86;100.00;100075.03;5070954;28;20199;-75
2022/03/17 06:08:47;;;;;;;44.65;27.27;;;;;;;9.67;100.00;100082.19;5071440;28;20200;-75
2022/03/17 06:11:13;;;;;;;36.58;26.10;;;;;;;9.75;100.00;100080.03;5071116;28;20302;-75
2022/03/17 06:13:43;;;;;;;37.03;25.95;;;;;;;9.62;100.00;100090.50;5071042;28;20195;-75
2022/03/17 06:16:10;;;;;;;37.20;25.50;;;;;;;9.67;100.00;100095.66;5070681;28;20256;-75
2022/03/17 06:18:37;;;;;;;35.47;24.52;;;;;;;9.88;100.00;100100.03;5070764;28;20196;-75
2022/03/17 06:21:05;;;;;;;35.53;24.83;;;;;;;9.99;100.00;100104.88;5070767;28;20193;-76
2022/03/17 06:23:32;;;;;;;40.10;25.83;;;;;;;10.07;100.00;100096.47;5071187;28;20181;-75
2022/03/17 06:25:59;;;;;;;36.17;26.13;;;;;;;10.17;100.00;100108.50;5071238;28;20182;-74
2022/03/17 06:28:26;;;;;;;35.00;25.55;;;;;;;10.20;100.00;100108.38;5074170;28;20222;-75
2022/03/17 06:30:54;;;;;;;31.88;24.58;;;;;;;10.17;100.00;100120.13;5073935;28;20205;-75
2022/03/17 06:33:20;;;;;;;41.33;26.02;;;;;;;9.82;100.00;100125.38;5074631;28;20646;-75
2022/03/17 06:35:47;;;;;;;31.63;23.55;;;;;;;9.81;100.00;100115.59;5073842;28;20212;-74
2022/03/17 06:38:15;;;;;;;33.65;23.73;;;;;;;9.87;100.00;100129.69;5073896;28;20188;-75
2022/03/17 06:40:42;;;;;;;33.28;24.33;;;;;;;9.81;100.00;100137.09;5074488;28;20181;-74
2022/03/17 06:43:09;;;;;;;30.02;23.73;;;;;;;10.01;100.00;100130.75;5074037;28;20292;-74
2022/03/17 06:45:35;;;;;;;34.22;24.40;;;;;;;10.09;100.00;100138.50;5074291;28;20623;-74
2022/03/17 06:48:02;;;;;;;34.05;25.15;;;;;;;10.03;100.00;100145.03;5080682;28;20585;-74
2022/03/17 06:50:28;;;;;;;38.22;26.17;;;;;;;10.24;100.00;100150.31;5073794;28;20232;-76
2022/03/17 06:52:56;;;;;;;39.20;27.65;;;;;;;10.22;100.00;100146.84;5074548;28;20187;-74
2022/03/17 06:55:24;;;;;;;39.38;24.95;;;;;;;10.47;100.00;100142.97;5074113;28;20549;-74
2022/03/17 06:57:50;;;;;;;38.85;26.83;;;;;;;10.53;100.00;100153.47;5074087;28;20199;-75
2022/03/17 07:00:19;;;;;;;31.25;23.67;;;;;;;10.56;100.00;100158.69;5073728;28;20192;-75
2022/03/17 07:02:45;;;;;;;30.73;23.63;;;;;;;10.62;100.00;100164.66;5069544;28;20290;-74
2022/03/17 07:05:13;;;;;;;38.03;24.77;;;;;;;10.51;100.00;100158.06;5073111;28;20199;-73
2022/03/17 07:07:40;;;;;;;37.13;25.55;;;;;;;10.28;100.00;100161.81;5073470;28;20193;-73
2022/03/17 07:10:08;;;;;;;34.42;24.50;;;;;;;10.38;100.00;100158.66;5073397;28;20559;-74
2022/03/17 07:12:37;;;;;;;37.78;26.17;;;;;;;10.35;100.00;100163.31;5073832;28;20180;-74
2022/03/17 07:15:05;;;;;;;33.33;24.83;;;;;;;10.62;100.00;100171.84;5073374;28;20200;-75
2022/03/17 07:17:39;;;;;;;37.20;25.08;;;;;;;10.58;100.00;100168.47;5073186;28;20189;-74
2022/03/17 07:20:07;;;;;;;40.40;26.85;;;;;;;10.57;100.00;100165.84;5073762;28;20626;-74
2022/03/17 07:22:34;;;;;;;38.55;26.42;;;;;;;10.70;100.00;100172.38;5090198;28;20208;-75
2022/03/17 07:25:01;;;;;;;39.95;25.80;;;;;;;10.63;100.00;100166.41;5093814;28;20207;-74
2022/03/17 07:27:30;;;;;;;38.70;27.83;;;;;;;10.82;100.00;100171.75;5077082;28;20268;-74
2022/03/17 07:29:58;;;;;;;33.72;24.98;;;;;;;10.87;100.00;100179.59;5072988;28;20989;-74
2022/03/17 07:32:25;;;;;;;37.03;25.20;;;;;;;10.91;100.00;100180.31;5073211;28;20219;-74
2022/03/17 07:34:51;;;;;;;35.63;25.30;;;;;;;11.04;100.00;100186.84;5073002;28;20185;-74
2022/03/17 07:37:19;;;;;;;34.25;26.30;;;;;;;11.27;100.00;100193.75;5072963;28;20259;-74
2022/03/17 07:39:46;;;;;;;35.13;24.58;;;;;;;11.30;100.00;100192.72;5072801;28;20894;-74
2022/03/17 07:42:13;;;;;;;45.00;26.00;;;;;;;11.35;100.00;100188.84;5072736;28;20295;-74
2022/03/17 07:44:40;;;;;;;38.80;26.67;;;;;;;11.32;100.00;100199.75;5072326;28;20223;-73
2022/03/17 07:47:08;;;;;;;37.63;27.88;;;;;;;11.36;100.00;100205.88;5072111;28;20204;-74
2022/03/17 07:49:35;;;;;;;33.60;24.83;;;;;;;11.33;100.00;100203.31;5070993;28;20248;-74
2022/03/17 07:52:02;;;;;;;33.80;25.92;;;;;;;11.51;100.00;100209.59;5072222;28;20649;-74
2022/03/17 07:54:28;;;;;;;38.05;27.45;;;;;;;11.43;100.00;100221.66;5070767;28;20199;-74
2022/03/17 07:56:56;;;;;;;35.95;25.50;;;;;;;11.52;100.00;100231.09;5072383;28;20195;-74
2022/03/17 07:59:23;;;;;;;38.08;24.95;;;;;;;11.52;100.00;100233.78;5072793;28;20752;-74
2022/03/17 08:01:50;;;;;;;35.13;25.95;;;;;;;11.45;100.00;100233.25;5072036;28;20193;-74
2022/03/17 08:04:18;;;;;;;33.85;26.02;;;;;;;11.28;100.00;100241.31;5072694;28;20195;-74
2022/03/17 08:06:45;;;;;;;38.05;27.05;;;;;;;11.27;100.00;100247.66;5072437;28;20188;-75
2022/03/17 08:09:11;;;;;;;44.15;28.27;;;;;;;11.40;100.00;100250.63;5072384;28;20215;-74
2022/03/17 08:11:38;;;;;;;45.97;27.83;;;;;;;11.26;100.00;100254.00;5072396;28;20226;-74
2022/03/17 08:14:04;;;;;;;35.65;25.55;;;;;;;11.52;100.00;100263.47;5072164;28;20196;-74
2022/03/17 08:16:31;;;;;;;42.10;27.45;;;;;;;11.66;100.00;100260.91;5072837;28;20228;-73
2022/03/17 08:18:58;;;;;;;42.25;28.02;;;;;;;11.86;100.00;100265.25;5072890;28;20185;-76
2022/03/17 08:21:25;;;;;;;38.72;27.02;;;;;;;11.81;100.00;100270.03;5072262;28;20192;-75
2022/03/17 08:23:52;;;;;;;42.88;27.23;;;;;;;11.74;100.00;100268.63;5072057;28;20188;-74
2022/03/17 08:26:19;;;;;;;36.55;27.58;;;;;;;12.00;100.00;100264.56;5071932;28;20197;-74
2022/03/17 08:28:45;;;;;;;46.00;28.33;;;;;;;11.80;100.00;100262.91;5072432;28;20185;-74
2022/03/17 08:31:12;;;;;;;43.78;26.50;;;;;;;11.80;100.00;100262.91;5066940;28;20935;-74
2022/03/17 08:33:39;;;;;;;38.97;28.02;;;;;;;12.09;100.00;100265.91;5072483;28;20200;-74
2022/03/17 08:36:06;;;;;;;44.25;29.15;;;;;;;11.93;100.00;100284.72;5072202;28;20266;-76
2022/03/17 08:38:34;;;;;;;41.70;29.45;;;;;;;11.82;100.00;100281.69;5071490;28;20254;-77
2022/03/17 08:41:01;;;;;;;39.55;26.25;;;;;;;11.43;100.00;100283.69;5071706;28;20192;-76
2022/03/17 08:43:27;;;;;;;39.58;28.23;;;;;;;11.42;100.00;100290.03;5071877;28;20189;-77
2022/03/17 08:51:24;;;;;;;37.65;25.77;;;;;;;11.39;100.00;100305.47;5071264;28;20231;-75
2022/03/17 08:53:52;;;;;;;41.00;27.75;;;;;;;11.59;100.00;100312.56;5070857;28;20292;-75
2022/03/17 08:56:19;;;;;;;41.17;29.08;;;;;;;11.66;100.00;100316.69;5071805;28;20744;-75
2022/03/17 08:58:46;;;;;;;41.28;28.73;;;;;;;11.69;100.00;100317.41;5071874;28;20216;-77
2022/03/17 09:01:13;;;;;;;44.05;29.98;;;;;;;11.36;100.00;100320.00;5071923;28;20205;-77
2022/03/17 09:03:39;;;;;;;40.25;28.67;;;;;;;11.27;100.00;100326.72;5071948;28;20595;-77
2022/03/17 09:06:06;;;;;;;42.50;27.90;;;;;;;11.40;100.00;100328.81;5071314;28;20197;-77
2022/03/17 09:08:32;;;;;;;37.17;27.45;;;;;;;11.19;100.00;100334.31;5071322;28;20537;-77
2022/03/17 09:11:00;;;;;;;42.92;29.33;;;;;;;11.13;100.00;100340.00;5071365;28;20580;-77
2022/03/17 09:13:28;;;;;;;37.65;27.70;;;;;;;11.17;100.00;100338.91;5069054;28;20211;-76
2022/03/17 09:15:55;;;;;;;43.83;28.60;;;;;;;11.24;100.00;100342.19;5071420;28;20181;-76
2022/03/17 09:18:23;;;;;;;42.08;28.25;;;;;;;11.54;100.00;100345.16;5071701;28;20185;-76
2022/03/17 09:20:50;;;;;;;43.03;30.27;;;;;;;11.23;100.00;100345.81;5070949;28;20231;-76
2022/03/17 09:23:17;;;;;;;45.28;30.35;;;;;;;11.46;100.00;100360.84;5071676;28;20181;-75
2022/03/17 09:25:44;;;;;;;45.67;31.15;;;;;;;11.06;100.00;100363.69;5071781;28;20554;-75
2022/03/17 09:28:13;;;;;;;42.33;31.83;;;;;;;11.22;100.00;100371.03;5071302;28;20224;-75
2022/03/17 09:30:40;;;;;;;43.25;30.38;;;;;;;11.30;100.00;100365.25;5070987;28;20247;-75
2022/03/17 09:33:07;;;;;;;44.17;29.08;;;;;;;11.10;100.00;100374.31;5071587;28;20637;-75
2022/03/17 09:35:35;;;;;;;46.72;29.27;;;;;;;10.79;100.00;100382.03;5070342;28;20197;-75
2022/03/17 09:38:02;;;;;;;50.33;30.92;;;;;;;10.71;100.00;100372.53;5066850;28;20205;-75
2022/03/17 09:40:29;;;;;;;45.95;32.38;;;;;;;10.72;100.00;100375.19;5071312;28;20600;-75
2022/03/17 09:43:18;;;;;;;47.90;30.30;;;;;;;10.72;100.00;100379.66;5070976;28;20298;-75
2022/03/17 09:45:45;;;;;;;45.10;30.65;;;;;;;10.80;100.00;100388.28;5070518;28;20715;-75
2022/03/17 09:48:12;;;;;;;45.33;30.92;;;;;;;10.76;100.00;100387.56;5071523;28;20851;-75
2022/03/17 09:50:39;;;;;;;42.10;29.73;;;;;;;10.66;100.00;100388.06;5070425;28;20236;-75
2022/03/17 09:53:06;;;;;;;44.17;29.10;;;;;;;10.78;100.00;100390.16;5068425;28;20205;-75
2022/03/17 09:55:34;;;;;;;50.70;31.38;;;;;;;10.75;100.00;100395.72;5070676;28;20958;-76
2022/03/17 09:58:01;;;;;;;47.08;30.13;;;;;;;10.95;100.00;100392.97;5070924;28;20624;-75
2022/03/17 10:00:47;;;;;;;45.10;29.15;;;;;;;10.94;100.00;100396.59;5071021;28;20204;-76
2022/03/17 10:03:15;;;;;;;44.05;28.45;;;;;;;10.90;100.00;100403.09;5074387;28;20287;-75
2022/03/17 10:05:44;;;;;;;40.72;28.33;;;;;;;10.89;100.00;100404.00;5074573;28;20184;-75
2022/03/17 10:08:11;;;;;;;40.03;27.65;;;;;;;10.90;100.00;100408.47;5073880;28;20243;-75
2022/03/17 10:10:39;;;;;;;44.40;28.83;;;;;;;10.94;100.00;100410.06;5074426;28;20215;-75
2022/03/17 10:13:06;;;;;;;52.50;30.55;;;;;;;11.13;100.00;100415.47;5074540;28;20560;-75
2022/03/17 10:15:33;;;;;;;38.30;26.05;;;;;;;11.41;100.00;100419.53;5055871;28;20278;-75
2022/03/17 10:18:00;;;;;;;42.47;27.33;;;;;;;11.53;100.00;100416.22;5054759;28;20251;-76
2022/03/17 10:20:29;;;;;;;37.35;26.15;;;;;;;11.33;100.00;100417.22;5068559;28;20197;-75
2022/03/17 10:22:57;;;;;;;37.08;24.45;;;;;;;11.46;100.00;100415.69;5074444;28;20572;-75
2022/03/17 10:25:26;;;;;;;34.38;25.33;;;;;;;11.45;100.00;100419.31;5073852;28;20189;-76
2022/03/17 10:27:55;;;;;;;42.95;25.75;;;;;;;11.51;100.00;100422.66;5073393;28;20623;-75
2022/03/17 10:30:27;;;;;;;34.17;21.52;;;;;;;11.44;100.00;100425.66;5072696;28;20219;-74
2022/03/17 10:32:56;;;;;;;32.63;22.95;;;;;;;11.44;100.00;100427.47;5080164;28;20180;-76
2022/03/17 10:35:34;;;;;;;32.38;23.05;;;;;;;11.47;100.00;100433.59;5079853;28;20250;-74
2022/03/17 10:38:10;;;;;;;36.63;23.80;;;;;;;11.66;100.00;100446.19;5073373;28;20193;-75
2022/03/17 10:40:37;;;;;;;36.78;23.45;;;;;;;11.66;100.00;100446.19;5072828;28;20185;-75
2022/03/17 10:43:18;;;;;;;32.03;22.45;;;;;;;11.60;100.00;100450.06;5073556;28;20197;-75
2022/03/17 10:45:45;;;;;;;33.83;21.25;;;;;;;11.46;100.00;100455.22;5073494;28;20196;-77
2022/03/17 10:48:12;;;;;;;38.97;23.05;;;;;;;11.25;100.00;100454.44;5073132;28;20185;-75
2022/03/17 10:50:42;;;;;;;29.25;20.75;;;;;;;11.35;100.00;100452.19;5073285;28;20282;-75
2022/03/17 10:53:10;;;;;;;32.03;21.80;;;;;;;11.29;100.00;100453.38;5073948;28;20556;-75
2022/03/17 10:55:39;;;;;;;31.13;21.65;;;;;;;11.47;100.00;100449.78;5073280;28;20541;-75
2022/03/17 10:58:14;;;;;;;33.45;22.30;;;;;;;11.73;100.00;100455.72;5073990;28;20208;-76
2022/03/17 11:00:48;;;;;;;27.45;19.80;;;;;;;11.68;100.00;100455.06;5073636;28;20181;-76
2022/03/17 11:03:16;;;;;;;26.65;18.48;;;;;;;11.74;100.00;100454.78;5072958;28;20196;-75
2022/03/17 11:05:44;;;;;;;32.08;21.30;;;;;;;11.99;100.00;100456.28;5071499;28;20200;-75
2022/03/17 11:08:11;;;;;;;29.50;20.42;;;;;;;11.85;100.00;100460.53;5073098;28;20196;-75
2022/03/17 11:10:39;;;;;;;28.98;20.42;;;;;;;11.78;100.00;100469.88;5073658;28;20618;-75
2022/03/17 11:13:09;;;;;;;29.70;20.15;;;;;;;11.96;100.00;100468.13;5072603;28;20646;-75
2022/03/17 11:15:38;;;;;;;28.75;19.20;;;;;;;12.20;100.00;100467.81;5073290;28;20197;-75
2022/03/17 11:18:07;;;;;;;25.15;18.30;;;;;;;11.97;100.00;100474.38;5073989;28;20654;-75
2022/03/17 11:20:35;;;;;;;27.15;18.83;;;;;;;12.14;100.00;100476.22;5073586;28;20597;-75
2022/03/17 11:23:15;;;;;;;28.40;19.05;;;;;;;11.95;100.00;100484.38;5073139;28;20512;-75
2022/03/17 11:25:51;;;;;;;28.40;19.90;;;;;;;11.99;100.00;100478.75;5071732;28;20196;-75
2022/03/17 11:28:17;;;;;;;21.67;16.55;;;;;;;11.77;100.00;100469.94;5072524;28;20263;-75